METAR UND TAF INFORMATION

METAR FOR LCLK
ADDS - METARS form results

(0246 UTC 26 June 2022)
Data provider http://aviationweather.gov/metar/data/
 
METAR text: LCLK 260230Z VRB03KT CAVOK 25/12 Q1006 NOSIG
Conditions at: LCLK (LARNACA/LARNAX A, CY) observed 0230 UTC 26 June 2022
Temperature: 25.0°C (77°F)
Dewpoint: 12.0°C (54°F) [RH = 44%]
Pressure (altimeter): 29.70 inches Hg (1006.0 mb)
Winds: variable direction winds at 3 MPH (3 knots; 1.5 m/s)
Visibility: 6 or more miles (10+ km)
Ceiling: ceiling and visibility are OK
Clouds: unknown
Weather: no significant weather observed at this time

METAR text: LCLK 260200Z 19003KT 170V230 CAVOK 26/12 Q1006 NOSIG
Conditions at: LCLK (LARNACA/LARNAX A, CY) observed 0200 UTC 26 June 2022
Temperature: 26.0°C (79°F)
Dewpoint: 12.0°C (54°F) [RH = 42%]
Pressure (altimeter): 29.70 inches Hg (1006.0 mb)
Winds: from the S (190 degrees) at 3 MPH (3 knots; 1.5 m/s)
Visibility: 6 or more miles (10+ km)
Ceiling: ceiling and visibility are OK
Clouds: unknown
Weather: no significant weather observed at this time

Forecast for: LCLK (LARNACA/LARNAX A, CY)
Text: TAF LCLK 252330Z 2600/2624 33007KT 9999 FEW030
Forecast period: 0000 to 0600 UTC 26 June 2022
Forecast type: FROM: standard forecast or significant change
Winds: from the NNW (330 degrees) at 8 MPH (7 knots; 3.6 m/s)
Visibility: 6 or more miles (10+ km)
Ceiling: at least 12,000 feet AGL
Clouds: few clouds at 3000 feet AGL
Weather: no significant weather forecast for this period
Text: BECMG 2606/2609 22014KT
Forecast period: 0600 to 1800 UTC 26 June 2022
Forecast type: BECOMING: Conditions expected to become as follows by 0900 UTC 26 June 2022
Winds: from the SW (220 degrees) at 16 MPH (14 knots; 7.2 m/s)
Visibility: 6 or more miles (10+ km)
Ceiling: at least 12,000 feet AGL
Clouds: few clouds at 3000 feet AGL
Weather: no significant weather forecast for this period
Text: BECMG 2618/2621 32009KT
Forecast period: 1800 UTC 26 June 2022 to 0000 UTC 27 June 2022
Forecast type: BECOMING: Conditions expected to become as follows by 2100 UTC 26 June 2022
Winds: from the NW (320 degrees) at 10 MPH (9 knots; 4.6 m/s)
Visibility: 6 or more miles (10+ km)
Ceiling: at least 12,000 feet AGL
Clouds: few clouds at 3000 feet AGL
Weather: no significant weather forecast for this period

 FLUGHAFENKARTE

 RUNWAY INFORMATION
Runway 04 Runway length 9776 ft Runway width 148 ft
Runway elevation 11 ft Runway displaced threshold 0 ft Runway heading 45
Runway 22 Runway length 9776 ft Runway width 148 ft
Runway elevation 6 ft Runway displaced threshold 575 ft Runway heading 225

 AIRPORT FREQUENCIES
Type APP Name APP Frequency 121.2 MHZ
Type ATIS Name ATIS Frequency 126.55 MHZ
Type TWR Name TWR Frequency 119.4 MHZ

 AIRPORT NEAR NAVIGATION AIDS
Type VOR-DME Name Larnaca Frequency 112800 KHZ
Type NDB Name Larnaca Frequency 432 KHZ